sensor_id;sensor_type;location;lat;lon;timestamp;P1;durP1;ratioP1;P2;durP2;ratioP2
11123;SDS011;5616;42.692;23.312;2022-09-14T00:01:15;4.67;;;4.27;;
11123;SDS011;5616;42.692;23.312;2022-09-14T00:03:45;4.90;;;4.33;;
11123;SDS011;5616;42.692;23.312;2022-09-14T00:06:14;7.70;;;4.27;;
11123;SDS011;5616;42.692;23.312;2022-09-14T00:08:42;4.47;;;4.07;;
11123;SDS011;5616;42.692;23.312;2022-09-14T00:11:10;5.13;;;4.43;;
11123;SDS011;5616;42.692;23.312;2022-09-14T00:13:38;4.93;;;4.37;;
11123;SDS011;5616;42.692;23.312;2022-09-14T00:16:07;4.90;;;4.43;;
11123;SDS011;5616;42.692;23.312;2022-09-14T00:18:38;4.83;;;4.37;;
11123;SDS011;5616;42.692;23.312;2022-09-14T00:21:07;5.10;;;4.50;;
11123;SDS011;5616;42.692;23.312;2022-09-14T00:23:37;6.00;;;4.50;;
11123;SDS011;5616;42.692;23.312;2022-09-14T00:26:06;4.87;;;4.40;;
11123;SDS011;5616;42.692;23.312;2022-09-14T00:28:36;5.63;;;4.27;;
11123;SDS011;5616;42.692;23.312;2022-09-14T00:31:03;5.20;;;4.73;;
11123;SDS011;5616;42.692;23.312;2022-09-14T00:33:31;5.00;;;4.27;;
11123;SDS011;5616;42.692;23.312;2022-09-14T00:36:02;7.00;;;4.40;;
11123;SDS011;5616;42.692;23.312;2022-09-14T00:38:32;4.70;;;4.30;;
11123;SDS011;5616;42.692;23.312;2022-09-14T00:41:00;5.47;;;4.97;;
11123;SDS011;5616;42.692;23.312;2022-09-14T00:43:28;5.73;;;4.47;;
11123;SDS011;5616;42.692;23.312;2022-09-14T00:45:55;5.67;;;4.80;;
11123;SDS011;5616;42.692;23.312;2022-09-14T00:48:25;6.10;;;5.50;;
11123;SDS011;5616;42.692;23.312;2022-09-14T00:50:52;7.73;;;5.03;;
11123;SDS011;5616;42.692;23.312;2022-09-14T00:53:19;7.10;;;5.13;;
11123;SDS011;5616;42.692;23.312;2022-09-14T00:55:49;5.53;;;5.03;;
11123;SDS011;5616;42.692;23.312;2022-09-14T00:58:18;5.80;;;4.97;;
11123;SDS011;5616;42.692;23.312;2022-09-14T01:00:46;6.10;;;5.13;;
11123;SDS011;5616;42.692;23.312;2022-09-14T01:03:13;5.30;;;4.77;;
11123;SDS011;5616;42.692;23.312;2022-09-14T01:05:52;5.47;;;4.63;;
11123;SDS011;5616;42.692;23.312;2022-09-14T01:08:30;6.07;;;4.30;;
11123;SDS011;5616;42.692;23.312;2022-09-14T01:11:13;4.27;;;3.87;;
11123;SDS011;5616;42.692;23.312;2022-09-14T01:13:52;7.67;;;4.47;;
11123;SDS011;5616;42.692;23.312;2022-09-14T01:16:28;5.30;;;4.33;;
11123;SDS011;5616;42.692;23.312;2022-09-14T01:18:59;9.20;;;4.20;;
11123;SDS011;5616;42.692;23.312;2022-09-14T01:21:31;4.73;;;3.60;;
11123;SDS011;5616;42.692;23.312;2022-09-14T01:24:02;5.20;;;4.23;;
11123;SDS011;5616;42.692;23.312;2022-09-14T01:29:38;5.37;;;3.90;;
11123;SDS011;5616;42.692;23.312;2022-09-14T01:32:10;4.30;;;3.93;;
11123;SDS011;5616;42.692;23.312;2022-09-14T01:34:44;5.33;;;3.93;;
11123;SDS011;5616;42.692;23.312;2022-09-14T01:37:17;4.17;;;3.73;;
11123;SDS011;5616;42.692;23.312;2022-09-14T01:39:49;4.47;;;3.93;;
11123;SDS011;5616;42.692;23.312;2022-09-14T01:42:20;4.47;;;4.07;;
11123;SDS011;5616;42.692;23.312;2022-09-14T01:44:54;4.37;;;3.90;;
11123;SDS011;5616;42.692;23.312;2022-09-14T01:47:25;5.70;;;3.60;;
11123;SDS011;5616;42.692;23.312;2022-09-14T01:49:58;4.20;;;3.80;;
11123;SDS011;5616;42.692;23.312;2022-09-14T01:52:37;6.70;;;4.10;;
11123;SDS011;5616;42.692;23.312;2022-09-14T01:55:09;4.30;;;3.90;;
11123;SDS011;5616;42.692;23.312;2022-09-14T01:57:41;5.63;;;3.63;;
11123;SDS011;5616;42.692;23.312;2022-09-14T02:00:13;5.03;;;3.90;;
11123;SDS011;5616;42.692;23.312;2022-09-14T02:02:43;4.60;;;4.07;;
11123;SDS011;5616;42.692;23.312;2022-09-14T02:05:15;4.13;;;3.77;;
11123;SDS011;5616;42.692;23.312;2022-09-14T02:07:47;4.17;;;3.70;;
11123;SDS011;5616;42.692;23.312;2022-09-14T02:10:15;4.60;;;4.20;;
11123;SDS011;5616;42.692;23.312;2022-09-14T02:12:43;5.23;;;4.00;;
11123;SDS011;5616;42.692;23.312;2022-09-14T02:15:11;5.17;;;4.07;;
11123;SDS011;5616;42.692;23.312;2022-09-14T02:17:40;5.10;;;4.60;;
11123;SDS011;5616;42.692;23.312;2022-09-14T02:20:10;4.80;;;4.30;;
11123;SDS011;5616;42.692;23.312;2022-09-14T02:22:41;6.13;;;4.37;;
11123;SDS011;5616;42.692;23.312;2022-09-14T02:25:08;5.87;;;4.83;;
11123;SDS011;5616;42.692;23.312;2022-09-14T02:27:35;5.27;;;4.87;;
11123;SDS011;5616;42.692;23.312;2022-09-14T02:30:02;7.33;;;4.57;;
11123;SDS011;5616;42.692;23.312;2022-09-14T02:32:34;4.70;;;4.30;;
11123;SDS011;5616;42.692;23.312;2022-09-14T02:35:10;6.37;;;4.37;;
11123;SDS011;5616;42.692;23.312;2022-09-14T02:37:47;5.03;;;4.53;;
11123;SDS011;5616;42.692;23.312;2022-09-14T02:40:23;5.20;;;4.70;;
11123;SDS011;5616;42.692;23.312;2022-09-14T02:42:59;5.43;;;4.90;;
11123;SDS011;5616;42.692;23.312;2022-09-14T02:45:38;5.10;;;4.50;;
11123;SDS011;5616;42.692;23.312;2022-09-14T02:48:16;6.10;;;4.40;;
11123;SDS011;5616;42.692;23.312;2022-09-14T02:50:50;5.00;;;4.50;;
11123;SDS011;5616;42.692;23.312;2022-09-14T02:53:25;4.83;;;4.43;;
11123;SDS011;5616;42.692;23.312;2022-09-14T02:56:01;5.47;;;4.87;;
11123;SDS011;5616;42.692;23.312;2022-09-14T02:58:32;5.97;;;4.70;;
11123;SDS011;5616;42.692;23.312;2022-09-14T03:01:01;4.77;;;4.37;;
11123;SDS011;5616;42.692;23.312;2022-09-14T03:03:30;5.80;;;4.50;;
11123;SDS011;5616;42.692;23.312;2022-09-14T03:05:57;8.10;;;4.93;;
11123;SDS011;5616;42.692;23.312;2022-09-14T03:08:24;6.43;;;4.37;;
11123;SDS011;5616;42.692;23.312;2022-09-14T03:10:52;7.90;;;4.83;;
11123;SDS011;5616;42.692;23.312;2022-09-14T03:13:19;6.67;;;4.80;;
11123;SDS011;5616;42.692;23.312;2022-09-14T03:15:46;7.83;;;5.23;;
11123;SDS011;5616;42.692;23.312;2022-09-14T03:18:13;6.53;;;5.00;;
11123;SDS011;5616;42.692;23.312;2022-09-14T03:20:41;6.47;;;5.03;;
11123;SDS011;5616;42.692;23.312;2022-09-14T03:23:09;6.53;;;5.43;;
11123;SDS011;5616;42.692;23.312;2022-09-14T03:25:37;5.53;;;5.00;;
11123;SDS011;5616;42.692;23.312;2022-09-14T03:28:05;6.88;;;5.32;;
11123;SDS011;5616;42.692;23.312;2022-09-14T03:30:33;5.20;;;4.70;;
11123;SDS011;5616;42.692;23.312;2022-09-14T03:33:00;6.77;;;4.90;;
11123;SDS011;5616;42.692;23.312;2022-09-14T03:35:27;5.30;;;4.47;;
11123;SDS011;5616;42.692;23.312;2022-09-14T03:37:57;6.00;;;5.37;;
11123;SDS011;5616;42.692;23.312;2022-09-14T03:40:25;5.57;;;5.07;;
11123;SDS011;5616;42.692;23.312;2022-09-14T03:42:52;7.85;;;5.18;;
11123;SDS011;5616;42.692;23.312;2022-09-14T03:45:19;15.90;;;4.93;;
11123;SDS011;5616;42.692;23.312;2022-09-14T03:47:46;6.70;;;5.50;;
11123;SDS011;5616;42.692;23.312;2022-09-14T03:50:14;7.57;;;4.50;;
11123;SDS011;5616;42.692;23.312;2022-09-14T03:52:42;7.40;;;4.77;;
11123;SDS011;5616;42.692;23.312;2022-09-14T03:55:10;5.77;;;4.57;;
11123;SDS011;5616;42.692;23.312;2022-09-14T03:57:37;7.17;;;4.63;;
11123;SDS011;5616;42.692;23.312;2022-09-14T04:00:05;7.57;;;5.30;;
11123;SDS011;5616;42.692;23.312;2022-09-14T04:02:36;7.27;;;5.27;;
11123;SDS011;5616;42.692;23.312;2022-09-14T04:05:04;8.13;;;5.53;;
11123;SDS011;5616;42.692;23.312;2022-09-14T04:07:31;8.73;;;5.90;;
11123;SDS011;5616;42.692;23.312;2022-09-14T04:09:58;8.23;;;5.57;;
11123;SDS011;5616;42.692;23.312;2022-09-14T04:12:26;5.87;;;5.27;;
11123;SDS011;5616;42.692;23.312;2022-09-14T04:14:53;7.80;;;5.50;;
11123;SDS011;5616;42.692;23.312;2022-09-14T04:17:20;6.57;;;5.27;;
11123;SDS011;5616;42.692;23.312;2022-09-14T04:19:50;7.83;;;5.60;;
11123;SDS011;5616;42.692;23.312;2022-09-14T04:22:16;7.70;;;5.50;;
11123;SDS011;5616;42.692;23.312;2022-09-14T04:24:43;9.00;;;6.07;;
11123;SDS011;5616;42.692;23.312;2022-09-14T04:27:10;7.40;;;5.90;;
11123;SDS011;5616;42.692;23.312;2022-09-14T04:29:38;8.77;;;6.60;;
11123;SDS011;5616;42.692;23.312;2022-09-14T04:32:05;10.60;;;6.60;;
11123;SDS011;5616;42.692;23.312;2022-09-14T04:34:33;9.80;;;7.00;;
11123;SDS011;5616;42.692;23.312;2022-09-14T04:37:00;7.27;;;6.53;;
11123;SDS011;5616;42.692;23.312;2022-09-14T04:39:27;9.00;;;6.77;;
11123;SDS011;5616;42.692;23.312;2022-09-14T04:41:54;11.13;;;6.97;;
11123;SDS011;5616;42.692;23.312;2022-09-14T04:44:21;13.03;;;6.97;;
11123;SDS011;5616;42.692;23.312;2022-09-14T04:46:49;7.80;;;6.60;;
11123;SDS011;5616;42.692;23.312;2022-09-14T04:49:16;11.90;;;6.70;;
11123;SDS011;5616;42.692;23.312;2022-09-14T04:51:45;10.00;;;6.50;;
11123;SDS011;5616;42.692;23.312;2022-09-14T04:54:13;7.50;;;6.33;;
11123;SDS011;5616;42.692;23.312;2022-09-14T04:56:41;8.10;;;6.63;;
11123;SDS011;5616;42.692;23.312;2022-09-14T04:59:09;7.63;;;6.87;;
11123;SDS011;5616;42.692;23.312;2022-09-14T05:01:37;8.67;;;7.00;;
11123;SDS011;5616;42.692;23.312;2022-09-14T05:04:07;9.43;;;7.10;;
11123;SDS011;5616;42.692;23.312;2022-09-14T05:06:36;16.20;;;7.33;;
11123;SDS011;5616;42.692;23.312;2022-09-14T05:09:05;10.13;;;6.63;;
11123;SDS011;5616;42.692;23.312;2022-09-14T05:11:33;9.23;;;6.70;;
11123;SDS011;5616;42.692;23.312;2022-09-14T05:14:02;8.00;;;6.93;;
11123;SDS011;5616;42.692;23.312;2022-09-14T05:16:30;12.97;;;7.50;;
11123;SDS011;5616;42.692;23.312;2022-09-14T05:18:58;10.07;;;7.87;;
11123;SDS011;5616;42.692;23.312;2022-09-14T05:21:28;15.90;;;7.70;;
11123;SDS011;5616;42.692;23.312;2022-09-14T05:23:57;11.50;;;7.37;;
11123;SDS011;5616;42.692;23.312;2022-09-14T05:26:26;10.47;;;7.57;;
11123;SDS011;5616;42.692;23.312;2022-09-14T05:28:54;10.97;;;7.20;;
11123;SDS011;5616;42.692;23.312;2022-09-14T05:31:23;9.03;;;7.37;;
11123;SDS011;5616;42.692;23.312;2022-09-14T05:33:51;12.00;;;7.60;;
11123;SDS011;5616;42.692;23.312;2022-09-14T05:36:19;8.63;;;7.30;;
11123;SDS011;5616;42.692;23.312;2022-09-14T05:38:47;11.77;;;7.43;;
11123;SDS011;5616;42.692;23.312;2022-09-14T05:41:14;10.33;;;8.53;;
11123;SDS011;5616;42.692;23.312;2022-09-14T05:43:42;13.07;;;8.43;;
11123;SDS011;5616;42.692;23.312;2022-09-14T05:46:10;10.57;;;8.43;;
11123;SDS011;5616;42.692;23.312;2022-09-14T05:48:37;11.30;;;8.50;;
11123;SDS011;5616;42.692;23.312;2022-09-14T05:51:06;10.23;;;8.53;;
11123;SDS011;5616;42.692;23.312;2022-09-14T05:53:35;11.47;;;8.63;;
11123;SDS011;5616;42.692;23.312;2022-09-14T05:56:04;14.23;;;9.37;;
11123;SDS011;5616;42.692;23.312;2022-09-14T05:58:32;11.57;;;9.07;;
11123;SDS011;5616;42.692;23.312;2022-09-14T06:01:05;9.87;;;8.17;;
11123;SDS011;5616;42.692;23.312;2022-09-14T06:03:32;10.53;;;8.37;;
11123;SDS011;5616;42.692;23.312;2022-09-14T06:06:00;11.00;;;7.60;;
11123;SDS011;5616;42.692;23.312;2022-09-14T06:08:27;11.47;;;7.93;;
11123;SDS011;5616;42.692;23.312;2022-09-14T06:10:54;12.20;;;6.57;;
11123;SDS011;5616;42.692;23.312;2022-09-14T06:13:22;11.00;;;6.60;;
11123;SDS011;5616;42.692;23.312;2022-09-14T06:15:49;6.03;;;4.63;;
11123;SDS011;5616;42.692;23.312;2022-09-14T06:18:16;6.63;;;5.43;;
11123;SDS011;5616;42.692;23.312;2022-09-14T06:20:52;6.23;;;5.63;;
11123;SDS011;5616;42.692;23.312;2022-09-14T06:23:19;6.73;;;5.90;;
11123;SDS011;5616;42.692;23.312;2022-09-14T06:25:45;6.37;;;5.77;;
11123;SDS011;5616;42.692;23.312;2022-09-14T06:28:12;8.13;;;6.47;;
11123;SDS011;5616;42.692;23.312;2022-09-14T06:30:42;8.83;;;5.83;;
11123;SDS011;5616;42.692;23.312;2022-09-14T06:33:09;7.30;;;6.10;;
11123;SDS011;5616;42.692;23.312;2022-09-14T06:35:36;12.70;;;6.27;;
11123;SDS011;5616;42.692;23.312;2022-09-14T06:38:03;12.73;;;8.60;;
11123;SDS011;5616;42.692;23.312;2022-09-14T06:40:30;16.90;;;10.53;;
11123;SDS011;5616;42.692;23.312;2022-09-14T06:42:57;15.20;;;8.43;;
11123;SDS011;5616;42.692;23.312;2022-09-14T06:45:27;14.00;;;8.63;;
11123;SDS011;5616;42.692;23.312;2022-09-14T06:47:55;9.53;;;7.30;;
11123;SDS011;5616;42.692;23.312;2022-09-14T06:50:22;9.00;;;6.93;;
11123;SDS011;5616;42.692;23.312;2022-09-14T06:52:50;9.27;;;6.00;;
11123;SDS011;5616;42.692;23.312;2022-09-14T06:55:17;5.83;;;5.23;;
11123;SDS011;5616;42.692;23.312;2022-09-14T06:57:46;6.70;;;5.23;;
11123;SDS011;5616;42.692;23.312;2022-09-14T07:00:13;5.77;;;4.60;;
11123;SDS011;5616;42.692;23.312;2022-09-14T07:02:41;7.47;;;4.93;;
11123;SDS011;5616;42.692;23.312;2022-09-14T07:05:10;7.10;;;4.90;;
11123;SDS011;5616;42.692;23.312;2022-09-14T07:07:37;9.17;;;5.60;;
11123;SDS011;5616;42.692;23.312;2022-09-14T07:10:04;8.97;;;5.40;;
11123;SDS011;5616;42.692;23.312;2022-09-14T07:12:31;8.60;;;5.77;;
11123;SDS011;5616;42.692;23.312;2022-09-14T07:14:58;7.27;;;6.10;;
11123;SDS011;5616;42.692;23.312;2022-09-14T07:17:25;6.90;;;6.20;;
11123;SDS011;5616;42.692;23.312;2022-09-14T07:19:52;8.30;;;6.40;;
11123;SDS011;5616;42.692;23.312;2022-09-14T07:22:20;9.57;;;6.33;;
11123;SDS011;5616;42.692;23.312;2022-09-14T07:24:47;12.33;;;6.33;;
11123;SDS011;5616;42.692;23.312;2022-09-14T07:27:14;8.13;;;6.00;;
11123;SDS011;5616;42.692;23.312;2022-09-14T07:29:41;6.30;;;5.73;;
11123;SDS011;5616;42.692;23.312;2022-09-14T07:32:08;12.03;;;6.10;;
11123;SDS011;5616;42.692;23.312;2022-09-14T07:34:35;10.53;;;6.13;;
11123;SDS011;5616;42.692;23.312;2022-09-14T07:37:01;8.60;;;6.27;;
11123;SDS011;5616;42.692;23.312;2022-09-14T07:39:30;10.63;;;5.73;;
11123;SDS011;5616;42.692;23.312;2022-09-14T07:41:57;7.43;;;5.70;;
11123;SDS011;5616;42.692;23.312;2022-09-14T07:44:24;8.27;;;5.33;;
11123;SDS011;5616;42.692;23.312;2022-09-14T07:46:50;8.23;;;5.80;;
11123;SDS011;5616;42.692;23.312;2022-09-14T07:49:17;9.60;;;6.37;;
11123;SDS011;5616;42.692;23.312;2022-09-14T07:51:46;8.90;;;5.73;;
11123;SDS011;5616;42.692;23.312;2022-09-14T07:54:14;12.90;;;8.10;;
11123;SDS011;5616;42.692;23.312;2022-09-14T07:56:44;11.57;;;5.27;;
11123;SDS011;5616;42.692;23.312;2022-09-14T07:59:11;6.43;;;5.37;;
11123;SDS011;5616;42.692;23.312;2022-09-14T08:01:39;7.80;;;5.97;;
11123;SDS011;5616;42.692;23.312;2022-09-14T08:04:06;10.30;;;6.20;;
11123;SDS011;5616;42.692;23.312;2022-09-14T08:06:33;8.80;;;5.47;;
11123;SDS011;5616;42.692;23.312;2022-09-14T08:09:04;8.87;;;6.10;;
11123;SDS011;5616;42.692;23.312;2022-09-14T08:11:32;10.70;;;6.13;;
11123;SDS011;5616;42.692;23.312;2022-09-14T08:14:02;6.63;;;5.67;;
11123;SDS011;5616;42.692;23.312;2022-09-14T08:16:31;8.23;;;6.43;;
11123;SDS011;5616;42.692;23.312;2022-09-14T08:18:59;10.17;;;6.57;;
11123;SDS011;5616;42.692;23.312;2022-09-14T08:21:28;8.67;;;7.27;;
11123;SDS011;5616;42.692;23.312;2022-09-14T08:23:56;9.20;;;8.00;;
11123;SDS011;5616;42.692;23.312;2022-09-14T08:26:24;11.33;;;6.27;;
11123;SDS011;5616;42.692;23.312;2022-09-14T08:28:52;8.23;;;5.87;;
11123;SDS011;5616;42.692;23.312;2022-09-14T08:31:21;7.50;;;5.80;;
11123;SDS011;5616;42.692;23.312;2022-09-14T08:33:51;8.33;;;5.37;;
11123;SDS011;5616;42.692;23.312;2022-09-14T08:36:19;9.23;;;5.07;;
11123;SDS011;5616;42.692;23.312;2022-09-14T08:38:47;14.87;;;6.73;;
11123;SDS011;5616;42.692;23.312;2022-09-14T08:41:18;13.13;;;8.23;;
11123;SDS011;5616;42.692;23.312;2022-09-14T08:43:52;11.03;;;7.17;;
11123;SDS011;5616;42.692;23.312;2022-09-14T08:46:24;10.43;;;6.73;;
11123;SDS011;5616;42.692;23.312;2022-09-14T08:48:55;11.03;;;6.83;;
11123;SDS011;5616;42.692;23.312;2022-09-14T08:51:22;10.63;;;6.25;;
11123;SDS011;5616;42.692;23.312;2022-09-14T08:53:50;9.60;;;6.57;;
11123;SDS011;5616;42.692;23.312;2022-09-14T08:56:19;8.20;;;6.18;;
11123;SDS011;5616;42.692;23.312;2022-09-14T09:01:58;9.07;;;6.22;;
11123;SDS011;5616;42.692;23.312;2022-09-14T09:04:39;11.73;;;6.30;;
11123;SDS011;5616;42.692;23.312;2022-09-14T09:07:17;13.38;;;6.00;;
11123;SDS011;5616;42.692;23.312;2022-09-14T09:09:52;11.73;;;6.20;;
11123;SDS011;5616;42.692;23.312;2022-09-14T09:12:22;9.13;;;6.40;;
11123;SDS011;5616;42.692;23.312;2022-09-14T09:14:53;7.22;;;5.78;;
11123;SDS011;5616;42.692;23.312;2022-09-14T09:17:26;8.98;;;6.10;;
11123;SDS011;5616;42.692;23.312;2022-09-14T09:19:59;8.60;;;5.40;;
11123;SDS011;5616;42.692;23.312;2022-09-14T09:22:30;14.25;;;5.72;;
11123;SDS011;5616;42.692;23.312;2022-09-14T09:25:02;8.77;;;5.90;;
11123;SDS011;5616;42.692;23.312;2022-09-14T09:27:30;9.10;;;6.03;;
11123;SDS011;5616;42.692;23.312;2022-09-14T09:29:57;8.90;;;5.43;;
11123;SDS011;5616;42.692;23.312;2022-09-14T09:32:28;10.52;;;5.60;;
11123;SDS011;5616;42.692;23.312;2022-09-14T09:35:18;7.68;;;5.35;;
11123;SDS011;5616;42.692;23.312;2022-09-14T09:38:00;8.57;;;5.63;;
11123;SDS011;5616;42.692;23.312;2022-09-14T09:40:29;10.27;;;5.68;;
11123;SDS011;5616;42.692;23.312;2022-09-14T09:43:07;9.48;;;4.88;;
11123;SDS011;5616;42.692;23.312;2022-09-14T09:45:45;11.52;;;5.63;;
11123;SDS011;5616;42.692;23.312;2022-09-14T09:48:17;9.18;;;4.82;;
11123;SDS011;5616;42.692;23.312;2022-09-14T09:50:45;5.88;;;4.50;;
11123;SDS011;5616;42.692;23.312;2022-09-14T09:53:14;6.82;;;4.55;;
11123;SDS011;5616;42.692;23.312;2022-09-14T09:55:45;7.65;;;4.47;;
11123;SDS011;5616;42.692;23.312;2022-09-14T09:58:20;7.55;;;4.13;;
11123;SDS011;5616;42.692;23.312;2022-09-14T10:00:53;7.13;;;4.10;;
11123;SDS011;5616;42.692;23.312;2022-09-14T10:03:27;7.20;;;4.13;;
11123;SDS011;5616;42.692;23.312;2022-09-14T10:06:00;7.10;;;4.22;;
11123;SDS011;5616;42.692;23.312;2022-09-14T10:08:29;11.13;;;4.72;;
11123;SDS011;5616;42.692;23.312;2022-09-14T10:10:59;19.70;;;10.50;;
11123;SDS011;5616;42.692;23.312;2022-09-14T10:13:28;17.00;;;7.70;;
11123;SDS011;5616;42.692;23.312;2022-09-14T10:16:06;8.35;;;5.00;;
11123;SDS011;5616;42.692;23.312;2022-09-14T10:18:44;8.75;;;4.68;;
11123;SDS011;5616;42.692;23.312;2022-09-14T10:21:13;8.15;;;3.67;;
11123;SDS011;5616;42.692;23.312;2022-09-14T10:23:41;7.20;;;4.15;;
11123;SDS011;5616;42.692;23.312;2022-09-14T10:26:16;6.63;;;4.00;;
11123;SDS011;5616;42.692;23.312;2022-09-14T10:28:47;7.18;;;3.47;;
11123;SDS011;5616;42.692;23.312;2022-09-14T10:31:17;12.52;;;4.25;;
11123;SDS011;5616;42.692;23.312;2022-09-14T10:33:52;8.15;;;3.80;;
11123;SDS011;5616;42.692;23.312;2022-09-14T10:36:22;19.25;;;9.80;;
11123;SDS011;5616;42.692;23.312;2022-09-14T10:38:52;9.57;;;4.95;;
11123;SDS011;5616;42.692;23.312;2022-09-14T10:41:24;6.93;;;3.90;;
11123;SDS011;5616;42.692;23.312;2022-09-14T10:44:09;6.55;;;3.72;;
11123;SDS011;5616;42.692;23.312;2022-09-14T10:47:10;8.38;;;4.43;;
11123;SDS011;5616;42.692;23.312;2022-09-14T10:49:58;9.05;;;4.55;;
11123;SDS011;5616;42.692;23.312;2022-09-14T10:52:36;12.88;;;5.78;;
11123;SDS011;5616;42.692;23.312;2022-09-14T10:55:18;12.15;;;4.88;;
11123;SDS011;5616;42.692;23.312;2022-09-14T10:57:58;9.43;;;3.50;;
11123;SDS011;5616;42.692;23.312;2022-09-14T11:00:35;5.10;;;3.15;;
11123;SDS011;5616;42.692;23.312;2022-09-14T11:03:13;9.40;;;3.40;;
11123;SDS011;5616;42.692;23.312;2022-09-14T11:05:53;2.80;;;2.00;;
11123;SDS011;5616;42.692;23.312;2022-09-14T11:08:30;3.55;;;1.83;;
11123;SDS011;5616;42.692;23.312;2022-09-14T11:11:12;2.05;;;1.70;;
11123;SDS011;5616;42.692;23.312;2022-09-14T11:13:51;3.38;;;1.70;;
11123;SDS011;5616;42.692;23.312;2022-09-14T11:19:36;2.55;;;2.33;;
11123;SDS011;5616;42.692;23.312;2022-09-14T11:22:10;4.55;;;1.90;;
11123;SDS011;5616;42.692;23.312;2022-09-14T11:24:41;2.85;;;1.88;;
11123;SDS011;5616;42.692;23.312;2022-09-14T11:27:18;4.85;;;1.80;;
11123;SDS011;5616;42.692;23.312;2022-09-14T11:29:51;4.97;;;2.13;;
11123;SDS011;5616;42.692;23.312;2022-09-14T11:32:23;4.20;;;1.70;;
11123;SDS011;5616;42.692;23.312;2022-09-14T11:34:57;1.63;;;1.52;;
11123;SDS011;5616;42.692;23.312;2022-09-14T11:37:31;3.85;;;1.60;;
11123;SDS011;5616;42.692;23.312;2022-09-14T11:40:07;3.35;;;1.50;;
11123;SDS011;5616;42.692;23.312;2022-09-14T11:42:44;2.55;;;2.20;;
11123;SDS011;5616;42.692;23.312;2022-09-14T11:45:18;4.75;;;1.80;;
11123;SDS011;5616;42.692;23.312;2022-09-14T11:47:51;4.40;;;1.77;;
11123;SDS011;5616;42.692;23.312;2022-09-14T11:50:23;4.22;;;2.65;;
11123;SDS011;5616;42.692;23.312;2022-09-14T11:52:58;3.45;;;1.73;;
11123;SDS011;5616;42.692;23.312;2022-09-14T11:55:29;2.78;;;1.60;;
11123;SDS011;5616;42.692;23.312;2022-09-14T11:57:56;4.22;;;2.13;;
11123;SDS011;5616;42.692;23.312;2022-09-14T12:00:44;7.15;;;2.92;;
11123;SDS011;5616;42.692;23.312;2022-09-14T12:09:36;3.85;;;1.60;;
11123;SDS011;5616;42.692;23.312;2022-09-14T12:15:00;4.07;;;2.28;;
11123;SDS011;5616;42.692;23.312;2022-09-14T12:17:32;4.88;;;2.80;;
11123;SDS011;5616;42.692;23.312;2022-09-14T12:22:51;2.75;;;1.45;;
11123;SDS011;5616;42.692;23.312;2022-09-14T12:25:32;2.17;;;1.98;;
11123;SDS011;5616;42.692;23.312;2022-09-14T12:28:00;3.15;;;1.60;;
11123;SDS011;5616;42.692;23.312;2022-09-14T12:30:33;3.20;;;1.92;;
11123;SDS011;5616;42.692;23.312;2022-09-14T12:33:43;2.67;;;1.42;;
11123;SDS011;5616;42.692;23.312;2022-09-14T12:39:24;2.40;;;2.13;;
11123;SDS011;5616;42.692;23.312;2022-09-14T12:44:56;1.98;;;1.58;;
11123;SDS011;5616;42.692;23.312;2022-09-14T12:50:16;4.05;;;2.00;;
11123;SDS011;5616;42.692;23.312;2022-09-14T12:52:50;7.55;;;2.70;;
11123;SDS011;5616;42.692;23.312;2022-09-14T12:58:41;1.60;;;1.50;;
11123;SDS011;5616;42.692;23.312;2022-09-14T13:01:18;4.22;;;2.08;;
11123;SDS011;5616;42.692;23.312;2022-09-14T13:03:53;3.00;;;1.70;;
11123;SDS011;5616;42.692;23.312;2022-09-14T13:06:21;4.25;;;2.78;;
11123;SDS011;5616;42.692;23.312;2022-09-14T13:08:52;4.40;;;3.67;;
11123;SDS011;5616;42.692;23.312;2022-09-14T13:11:23;3.40;;;2.72;;
11123;SDS011;5616;42.692;23.312;2022-09-14T13:13:55;2.05;;;1.73;;
11123;SDS011;5616;42.692;23.312;2022-09-14T13:16:27;2.22;;;1.92;;
11123;SDS011;5616;42.692;23.312;2022-09-14T13:19:03;2.40;;;2.00;;
11123;SDS011;5616;42.692;23.312;2022-09-14T13:21:31;2.05;;;1.85;;
11123;SDS011;5616;42.692;23.312;2022-09-14T13:23:58;4.60;;;3.85;;
11123;SDS011;5616;42.692;23.312;2022-09-14T13:26:25;6.15;;;2.67;;
11123;SDS011;5616;42.692;23.312;2022-09-14T13:28:57;3.05;;;1.75;;
11123;SDS011;5616;42.692;23.312;2022-09-14T13:31:27;3.25;;;2.60;;
11123;SDS011;5616;42.692;23.312;2022-09-14T13:33:57;4.40;;;3.33;;
11123;SDS011;5616;42.692;23.312;2022-09-14T13:36:25;3.38;;;2.30;;
11123;SDS011;5616;42.692;23.312;2022-09-14T13:38:54;11.15;;;5.63;;
11123;SDS011;5616;42.692;23.312;2022-09-14T13:41:26;5.28;;;3.92;;
11123;SDS011;5616;42.692;23.312;2022-09-14T13:43:54;3.42;;;2.10;;
11123;SDS011;5616;42.692;23.312;2022-09-14T13:46:24;2.63;;;2.22;;
11123;SDS011;5616;42.692;23.312;2022-09-14T13:48:52;2.40;;;2.15;;
11123;SDS011;5616;42.692;23.312;2022-09-14T13:51:21;3.58;;;1.58;;
11123;SDS011;5616;42.692;23.312;2022-09-14T13:53:51;2.85;;;1.60;;
11123;SDS011;5616;42.692;23.312;2022-09-14T13:56:24;2.28;;;1.80;;
11123;SDS011;5616;42.692;23.312;2022-09-14T13:59:17;2.30;;;1.88;;
11123;SDS011;5616;42.692;23.312;2022-09-14T14:01:51;4.35;;;1.92;;
11123;SDS011;5616;42.692;23.312;2022-09-14T14:04:22;2.22;;;1.60;;
11123;SDS011;5616;42.692;23.312;2022-09-14T14:07:03;3.40;;;2.20;;
11123;SDS011;5616;42.692;23.312;2022-09-14T14:09:42;5.63;;;4.38;;
11123;SDS011;5616;42.692;23.312;2022-09-14T14:12:11;2.30;;;2.03;;
11123;SDS011;5616;42.692;23.312;2022-09-14T14:14:54;4.72;;;3.42;;
11123;SDS011;5616;42.692;23.312;2022-09-14T14:17:29;3.83;;;2.00;;
11123;SDS011;5616;42.692;23.312;2022-09-14T14:20:23;2.58;;;2.20;;
11123;SDS011;5616;42.692;23.312;2022-09-14T14:22:57;4.70;;;3.15;;
11123;SDS011;5616;42.692;23.312;2022-09-14T14:25:29;6.43;;;2.97;;
11123;SDS011;5616;42.692;23.312;2022-09-14T14:27:58;4.10;;;2.75;;
11123;SDS011;5616;42.692;23.312;2022-09-14T14:30:26;2.47;;;2.17;;
11123;SDS011;5616;42.692;23.312;2022-09-14T14:32:56;2.85;;;2.17;;
11123;SDS011;5616;42.692;23.312;2022-09-14T14:35:25;2.75;;;2.28;;
11123;SDS011;5616;42.692;23.312;2022-09-14T14:37:56;2.30;;;2.10;;
11123;SDS011;5616;42.692;23.312;2022-09-14T14:40:24;3.95;;;2.22;;
11123;SDS011;5616;42.692;23.312;2022-09-14T14:42:52;5.47;;;3.05;;
11123;SDS011;5616;42.692;23.312;2022-09-14T14:45:22;2.88;;;2.30;;
11123;SDS011;5616;42.692;23.312;2022-09-14T14:47:51;4.53;;;1.77;;
11123;SDS011;5616;42.692;23.312;2022-09-14T14:50:21;3.17;;;2.30;;
11123;SDS011;5616;42.692;23.312;2022-09-14T14:52:50;4.68;;;2.08;;
11123;SDS011;5616;42.692;23.312;2022-09-14T14:55:18;5.95;;;1.88;;
11123;SDS011;5616;42.692;23.312;2022-09-14T14:57:45;4.32;;;2.10;;
11123;SDS011;5616;42.692;23.312;2022-09-14T15:00:13;3.20;;;2.00;;
11123;SDS011;5616;42.692;23.312;2022-09-14T15:02:42;2.72;;;1.98;;
11123;SDS011;5616;42.692;23.312;2022-09-14T15:05:09;3.47;;;1.90;;
11123;SDS011;5616;42.692;23.312;2022-09-14T15:07:38;4.15;;;2.40;;
11123;SDS011;5616;42.692;23.312;2022-09-14T15:10:06;3.70;;;2.25;;
11123;SDS011;5616;42.692;23.312;2022-09-14T15:12:34;5.43;;;1.90;;
11123;SDS011;5616;42.692;23.312;2022-09-14T15:15:01;6.38;;;2.60;;
11123;SDS011;5616;42.692;23.312;2022-09-14T15:17:29;5.50;;;1.77;;
11123;SDS011;5616;42.692;23.312;2022-09-14T15:19:56;4.75;;;1.95;;
11123;SDS011;5616;42.692;23.312;2022-09-14T15:22:23;3.75;;;2.00;;
11123;SDS011;5616;42.692;23.312;2022-09-14T15:24:51;4.57;;;1.90;;
11123;SDS011;5616;42.692;23.312;2022-09-14T15:27:18;5.88;;;3.50;;
11123;SDS011;5616;42.692;23.312;2022-09-14T15:29:45;4.50;;;3.67;;
11123;SDS011;5616;42.692;23.312;2022-09-14T15:32:11;2.15;;;1.95;;
11123;SDS011;5616;42.692;23.312;2022-09-14T15:34:38;2.13;;;1.92;;
11123;SDS011;5616;42.692;23.312;2022-09-14T15:37:06;2.22;;;2.00;;
11123;SDS011;5616;42.692;23.312;2022-09-14T15:39:34;3.97;;;2.20;;